sensor_id;sensor_type;location;lat;lon;timestamp;P1;durP1;ratioP1;P2;durP2;ratioP2
18544;SDS011;9402;51.460;7.276;2022-08-20T00:01:08;155.20;;;113.43;;
18544;SDS011;9402;51.460;7.276;2022-08-20T00:03:13;134.43;;;99.83;;
18544;SDS011;9402;51.460;7.276;2022-08-20T00:05:19;153.27;;;127.43;;
18544;SDS011;9402;51.460;7.276;2022-08-20T00:07:24;98.80;;;63.33;;
18544;SDS011;9402;51.460;7.276;2022-08-20T00:09:26;108.57;;;76.00;;
18544;SDS011;9402;51.460;7.276;2022-08-20T00:11:28;102.70;;;80.50;;
18544;SDS011;9402;51.460;7.276;2022-08-20T00:13:34;122.83;;;89.33;;
18544;SDS011;9402;51.460;7.276;2022-08-20T00:15:39;114.40;;;70.93;;
18544;SDS011;9402;51.460;7.276;2022-08-20T00:17:42;141.93;;;101.03;;
18544;SDS011;9402;51.460;7.276;2022-08-20T00:19:44;135.33;;;95.93;;
18544;SDS011;9402;51.460;7.276;2022-08-20T00:21:46;100.03;;;69.00;;
18544;SDS011;9402;51.460;7.276;2022-08-20T00:23:49;134.13;;;96.63;;
18544;SDS011;9402;51.460;7.276;2022-08-20T00:25:53;66.30;;;41.70;;
18544;SDS011;9402;51.460;7.276;2022-08-20T00:27:55;121.53;;;88.00;;
18544;SDS011;9402;51.460;7.276;2022-08-20T00:29:58;101.20;;;68.17;;
18544;SDS011;9402;51.460;7.276;2022-08-20T00:32:02;101.57;;;61.47;;
18544;SDS011;9402;51.460;7.276;2022-08-20T00:34:05;125.23;;;81.67;;
18544;SDS011;9402;51.460;7.276;2022-08-20T00:36:08;109.17;;;70.47;;
18544;SDS011;9402;51.460;7.276;2022-08-20T00:38:11;111.83;;;80.63;;
18544;SDS011;9402;51.460;7.276;2022-08-20T00:40:15;185.60;;;113.13;;
18544;SDS011;9402;51.460;7.276;2022-08-20T00:42:18;116.53;;;76.33;;
18544;SDS011;9402;51.460;7.276;2022-08-20T00:44:21;104.30;;;72.17;;
18544;SDS011;9402;51.460;7.276;2022-08-20T00:46:24;82.43;;;54.37;;
18544;SDS011;9402;51.460;7.276;2022-08-20T00:48:30;129.20;;;88.37;;
18544;SDS011;9402;51.460;7.276;2022-08-20T00:50:35;88.43;;;58.80;;
18544;SDS011;9402;51.460;7.276;2022-08-20T00:52:38;84.97;;;39.43;;
18544;SDS011;9402;51.460;7.276;2022-08-20T00:54:42;115.87;;;59.20;;
18544;SDS011;9402;51.460;7.276;2022-08-20T00:56:48;164.07;;;92.57;;
18544;SDS011;9402;51.460;7.276;2022-08-20T00:58:53;93.43;;;33.50;;
18544;SDS011;9402;51.460;7.276;2022-08-20T01:00:55;115.23;;;32.57;;
18544;SDS011;9402;51.460;7.276;2022-08-20T01:02:58;66.80;;;29.37;;
18544;SDS011;9402;51.460;7.276;2022-08-20T01:05:03;155.07;;;58.80;;
18544;SDS011;9402;51.460;7.276;2022-08-20T01:07:08;126.70;;;38.70;;
18544;SDS011;9402;51.460;7.276;2022-08-20T01:09:13;174.33;;;61.93;;
18544;SDS011;9402;51.460;7.276;2022-08-20T01:11:15;137.57;;;63.20;;
18544;SDS011;9402;51.460;7.276;2022-08-20T01:13:22;126.03;;;32.40;;
18544;SDS011;9402;51.460;7.276;2022-08-20T01:15:27;191.20;;;74.67;;
18544;SDS011;9402;51.460;7.276;2022-08-20T01:17:31;172.23;;;53.20;;
18544;SDS011;9402;51.460;7.276;2022-08-20T01:19:37;202.33;;;82.20;;
18544;SDS011;9402;51.460;7.276;2022-08-20T01:21:42;168.07;;;55.23;;
18544;SDS011;9402;51.460;7.276;2022-08-20T01:23:52;159.83;;;52.47;;
18544;SDS011;9402;51.460;7.276;2022-08-20T01:26:02;108.00;;;34.77;;
18544;SDS011;9402;51.460;7.276;2022-08-20T01:28:07;118.50;;;37.03;;
18544;SDS011;9402;51.460;7.276;2022-08-20T01:30:10;128.67;;;36.40;;
18544;SDS011;9402;51.460;7.276;2022-08-20T01:32:13;146.47;;;40.43;;
18544;SDS011;9402;51.460;7.276;2022-08-20T01:34:17;135.50;;;38.07;;
18544;SDS011;9402;51.460;7.276;2022-08-20T01:36:21;195.27;;;69.17;;
18544;SDS011;9402;51.460;7.276;2022-08-20T01:38:24;124.50;;;41.73;;
18544;SDS011;9402;51.460;7.276;2022-08-20T01:40:33;119.57;;;42.47;;
18544;SDS011;9402;51.460;7.276;2022-08-20T01:42:46;144.90;;;51.00;;
18544;SDS011;9402;51.460;7.276;2022-08-20T01:44:49;168.93;;;53.30;;
18544;SDS011;9402;51.460;7.276;2022-08-20T01:46:52;228.80;;;69.20;;
18544;SDS011;9402;51.460;7.276;2022-08-20T01:48:56;123.73;;;34.17;;
18544;SDS011;9402;51.460;7.276;2022-08-20T01:51:01;163.70;;;38.97;;
18544;SDS011;9402;51.460;7.276;2022-08-20T01:53:07;157.77;;;52.30;;
18544;SDS011;9402;51.460;7.276;2022-08-20T01:55:15;123.00;;;34.67;;
18544;SDS011;9402;51.460;7.276;2022-08-20T01:57:18;158.30;;;49.07;;
18544;SDS011;9402;51.460;7.276;2022-08-20T01:59:23;193.93;;;74.33;;
18544;SDS011;9402;51.460;7.276;2022-08-20T02:01:26;190.17;;;78.83;;
18544;SDS011;9402;51.460;7.276;2022-08-20T02:03:31;140.30;;;58.90;;
18544;SDS011;9402;51.460;7.276;2022-08-20T02:05:34;184.40;;;61.80;;
18544;SDS011;9402;51.460;7.276;2022-08-20T02:07:36;166.73;;;69.20;;
18544;SDS011;9402;51.460;7.276;2022-08-20T02:09:39;199.60;;;82.37;;
18544;SDS011;9402;51.460;7.276;2022-08-20T02:11:42;204.13;;;81.53;;
18544;SDS011;9402;51.460;7.276;2022-08-20T02:13:45;167.93;;;60.73;;
18544;SDS011;9402;51.460;7.276;2022-08-20T02:15:52;135.23;;;58.33;;
18544;SDS011;9402;51.460;7.276;2022-08-20T02:17:55;191.23;;;82.47;;
18544;SDS011;9402;51.460;7.276;2022-08-20T02:19:58;191.30;;;74.53;;
18544;SDS011;9402;51.460;7.276;2022-08-20T02:22:03;207.80;;;81.03;;
18544;SDS011;9402;51.460;7.276;2022-08-20T02:24:09;171.50;;;71.40;;
18544;SDS011;9402;51.460;7.276;2022-08-20T02:26:12;231.93;;;95.67;;
18544;SDS011;9402;51.460;7.276;2022-08-20T02:28:18;226.73;;;92.53;;
18544;SDS011;9402;51.460;7.276;2022-08-20T02:30:21;206.80;;;92.53;;
18544;SDS011;9402;51.460;7.276;2022-08-20T02:32:26;216.73;;;109.70;;
18544;SDS011;9402;51.460;7.276;2022-08-20T02:34:28;160.23;;;71.40;;
18544;SDS011;9402;51.460;7.276;2022-08-20T02:36:31;290.50;;;125.80;;
18544;SDS011;9402;51.460;7.276;2022-08-20T02:38:35;175.87;;;78.57;;
18544;SDS011;9402;51.460;7.276;2022-08-20T02:40:38;225.93;;;99.70;;
18544;SDS011;9402;51.460;7.276;2022-08-20T02:42:43;194.27;;;86.27;;
18544;SDS011;9402;51.460;7.276;2022-08-20T02:44:46;203.37;;;84.23;;
18544;SDS011;9402;51.460;7.276;2022-08-20T02:46:49;218.77;;;80.80;;
18544;SDS011;9402;51.460;7.276;2022-08-20T02:48:52;165.03;;;67.70;;
18544;SDS011;9402;51.460;7.276;2022-08-20T02:50:55;180.37;;;75.97;;
18544;SDS011;9402;51.460;7.276;2022-08-20T02:53:00;195.73;;;83.57;;
18544;SDS011;9402;51.460;7.276;2022-08-20T02:55:03;142.30;;;57.13;;
18544;SDS011;9402;51.460;7.276;2022-08-20T02:57:10;168.93;;;72.83;;
18544;SDS011;9402;51.460;7.276;2022-08-20T02:59:13;126.00;;;45.80;;
18544;SDS011;9402;51.460;7.276;2022-08-20T03:01:16;134.20;;;46.60;;
18544;SDS011;9402;51.460;7.276;2022-08-20T03:03:19;232.27;;;102.77;;
18544;SDS011;9402;51.460;7.276;2022-08-20T03:05:23;235.23;;;82.40;;
18544;SDS011;9402;51.460;7.276;2022-08-20T03:07:25;188.80;;;75.73;;
18544;SDS011;9402;51.460;7.276;2022-08-20T03:09:27;147.47;;;63.17;;
18544;SDS011;9402;51.460;7.276;2022-08-20T03:11:30;169.63;;;63.30;;
18544;SDS011;9402;51.460;7.276;2022-08-20T03:13:32;187.80;;;68.23;;
18544;SDS011;9402;51.460;7.276;2022-08-20T03:15:34;143.23;;;70.63;;
18544;SDS011;9402;51.460;7.276;2022-08-20T03:17:37;246.47;;;114.63;;
18544;SDS011;9402;51.460;7.276;2022-08-20T03:19:39;242.10;;;75.00;;
18544;SDS011;9402;51.460;7.276;2022-08-20T03:21:43;209.10;;;94.57;;
18544;SDS011;9402;51.460;7.276;2022-08-20T03:23:45;163.20;;;66.73;;
18544;SDS011;9402;51.460;7.276;2022-08-20T03:25:48;218.67;;;91.27;;
18544;SDS011;9402;51.460;7.276;2022-08-20T03:27:50;137.50;;;58.00;;
18544;SDS011;9402;51.460;7.276;2022-08-20T03:29:53;169.00;;;83.00;;
18544;SDS011;9402;51.460;7.276;2022-08-20T03:31:55;204.80;;;91.63;;
18544;SDS011;9402;51.460;7.276;2022-08-20T03:33:58;171.37;;;71.97;;
18544;SDS011;9402;51.460;7.276;2022-08-20T03:36:00;190.53;;;79.17;;
18544;SDS011;9402;51.460;7.276;2022-08-20T03:38:06;119.50;;;51.57;;
18544;SDS011;9402;51.460;7.276;2022-08-20T03:40:11;219.33;;;102.23;;
18544;SDS011;9402;51.460;7.276;2022-08-20T03:42:15;203.43;;;75.87;;
18544;SDS011;9402;51.460;7.276;2022-08-20T03:44:18;168.90;;;75.87;;
18544;SDS011;9402;51.460;7.276;2022-08-20T03:46:20;213.60;;;97.70;;
18544;SDS011;9402;51.460;7.276;2022-08-20T03:48:22;167.53;;;70.97;;
18544;SDS011;9402;51.460;7.276;2022-08-20T03:50:26;198.60;;;84.53;;
18544;SDS011;9402;51.460;7.276;2022-08-20T03:52:29;168.37;;;72.07;;
18544;SDS011;9402;51.460;7.276;2022-08-20T03:54:33;161.70;;;63.33;;
18544;SDS011;9402;51.460;7.276;2022-08-20T03:56:36;127.70;;;49.57;;
18544;SDS011;9402;51.460;7.276;2022-08-20T03:58:38;176.20;;;80.50;;
18544;SDS011;9402;51.460;7.276;2022-08-20T04:00:42;205.73;;;92.57;;
18544;SDS011;9402;51.460;7.276;2022-08-20T04:02:46;226.57;;;123.43;;
18544;SDS011;9402;51.460;7.276;2022-08-20T04:04:49;172.60;;;88.97;;
18544;SDS011;9402;51.460;7.276;2022-08-20T04:06:51;174.23;;;81.57;;
18544;SDS011;9402;51.460;7.276;2022-08-20T04:08:54;206.33;;;97.63;;
18544;SDS011;9402;51.460;7.276;2022-08-20T04:10:58;177.07;;;83.27;;
18544;SDS011;9402;51.460;7.276;2022-08-20T04:13:01;167.10;;;86.73;;
18544;SDS011;9402;51.460;7.276;2022-08-20T04:15:04;184.80;;;86.97;;
18544;SDS011;9402;51.460;7.276;2022-08-20T04:17:08;215.70;;;107.00;;
18544;SDS011;9402;51.460;7.276;2022-08-20T04:19:12;300.77;;;116.73;;
18544;SDS011;9402;51.460;7.276;2022-08-20T04:21:15;173.90;;;80.40;;
18544;SDS011;9402;51.460;7.276;2022-08-20T04:23:17;187.77;;;81.67;;
18544;SDS011;9402;51.460;7.276;2022-08-20T04:25:20;205.43;;;86.03;;
18544;SDS011;9402;51.460;7.276;2022-08-20T04:27:25;198.63;;;84.20;;
18544;SDS011;9402;51.460;7.276;2022-08-20T04:29:28;225.20;;;111.03;;
18544;SDS011;9402;51.460;7.276;2022-08-20T04:31:30;226.70;;;110.00;;
18544;SDS011;9402;51.460;7.276;2022-08-20T04:33:33;132.37;;;56.10;;
18544;SDS011;9402;51.460;7.276;2022-08-20T04:35:36;221.30;;;107.50;;
18544;SDS011;9402;51.460;7.276;2022-08-20T04:37:38;206.33;;;110.77;;
18544;SDS011;9402;51.460;7.276;2022-08-20T04:39:41;188.20;;;95.00;;
18544;SDS011;9402;51.460;7.276;2022-08-20T04:41:43;210.10;;;98.03;;
18544;SDS011;9402;51.460;7.276;2022-08-20T04:43:46;102.13;;;52.97;;
18544;SDS011;9402;51.460;7.276;2022-08-20T04:45:49;199.73;;;106.37;;
18544;SDS011;9402;51.460;7.276;2022-08-20T04:47:52;119.33;;;57.87;;
18544;SDS011;9402;51.460;7.276;2022-08-20T04:49:54;94.73;;;41.80;;
18544;SDS011;9402;51.460;7.276;2022-08-20T04:51:59;124.83;;;64.53;;
18544;SDS011;9402;51.460;7.276;2022-08-20T04:54:02;209.17;;;111.47;;
18544;SDS011;9402;51.460;7.276;2022-08-20T04:56:04;161.33;;;90.20;;
18544;SDS011;9402;51.460;7.276;2022-08-20T04:58:08;165.30;;;82.90;;
18544;SDS011;9402;51.460;7.276;2022-08-20T05:00:14;162.80;;;84.80;;
18544;SDS011;9402;51.460;7.276;2022-08-20T05:02:17;238.00;;;153.83;;
18544;SDS011;9402;51.460;7.276;2022-08-20T05:04:19;281.23;;;172.73;;
18544;SDS011;9402;51.460;7.276;2022-08-20T05:06:22;251.47;;;145.60;;
18544;SDS011;9402;51.460;7.276;2022-08-20T05:08:25;254.43;;;162.87;;
18544;SDS011;9402;51.460;7.276;2022-08-20T05:10:28;306.93;;;207.70;;
18544;SDS011;9402;51.460;7.276;2022-08-20T05:12:30;248.20;;;131.17;;
18544;SDS011;9402;51.460;7.276;2022-08-20T05:14:32;232.47;;;130.80;;
18544;SDS011;9402;51.460;7.276;2022-08-20T05:16:37;238.97;;;131.87;;
18544;SDS011;9402;51.460;7.276;2022-08-20T05:18:40;175.00;;;94.43;;
18544;SDS011;9402;51.460;7.276;2022-08-20T05:20:43;294.33;;;173.33;;
18544;SDS011;9402;51.460;7.276;2022-08-20T05:22:46;252.10;;;147.30;;
18544;SDS011;9402;51.460;7.276;2022-08-20T05:24:48;265.33;;;145.70;;
18544;SDS011;9402;51.460;7.276;2022-08-20T05:26:51;181.43;;;101.17;;
18544;SDS011;9402;51.460;7.276;2022-08-20T05:28:54;173.93;;;97.83;;
18544;SDS011;9402;51.460;7.276;2022-08-20T05:30:57;218.47;;;131.43;;
18544;SDS011;9402;51.460;7.276;2022-08-20T05:33:02;230.43;;;132.83;;
18544;SDS011;9402;51.460;7.276;2022-08-20T05:35:07;236.53;;;126.80;;
18544;SDS011;9402;51.460;7.276;2022-08-20T05:37:10;162.57;;;78.47;;
18544;SDS011;9402;51.460;7.276;2022-08-20T05:39:14;191.07;;;101.30;;
18544;SDS011;9402;51.460;7.276;2022-08-20T05:41:17;192.77;;;97.70;;
18544;SDS011;9402;51.460;7.276;2022-08-20T05:43:20;269.87;;;147.93;;
18544;SDS011;9402;51.460;7.276;2022-08-20T05:45:23;203.67;;;125.90;;
18544;SDS011;9402;51.460;7.276;2022-08-20T05:47:25;269.50;;;160.50;;
18544;SDS011;9402;51.460;7.276;2022-08-20T05:49:30;301.30;;;188.43;;
18544;SDS011;9402;51.460;7.276;2022-08-20T05:51:33;257.83;;;153.23;;
18544;SDS011;9402;51.460;7.276;2022-08-20T05:53:36;208.10;;;118.70;;
18544;SDS011;9402;51.460;7.276;2022-08-20T05:55:38;270.30;;;153.23;;
18544;SDS011;9402;51.460;7.276;2022-08-20T05:57:42;190.83;;;117.53;;
18544;SDS011;9402;51.460;7.276;2022-08-20T05:59:45;211.53;;;130.63;;
18544;SDS011;9402;51.460;7.276;2022-08-20T06:01:47;192.13;;;115.00;;
18544;SDS011;9402;51.460;7.276;2022-08-20T06:03:50;230.67;;;143.43;;
18544;SDS011;9402;51.460;7.276;2022-08-20T06:06:11;215.80;;;109.23;;
18544;SDS011;9402;51.460;7.276;2022-08-20T06:08:14;274.53;;;164.23;;
18544;SDS011;9402;51.460;7.276;2022-08-20T06:10:16;213.57;;;124.53;;
18544;SDS011;9402;51.460;7.276;2022-08-20T06:12:19;257.47;;;138.07;;
18544;SDS011;9402;51.460;7.276;2022-08-20T06:14:21;202.40;;;110.57;;
18544;SDS011;9402;51.460;7.276;2022-08-20T06:16:24;202.50;;;120.33;;
18544;SDS011;9402;51.460;7.276;2022-08-20T06:18:26;227.20;;;126.37;;
18544;SDS011;9402;51.460;7.276;2022-08-20T06:20:28;246.37;;;140.30;;
18544;SDS011;9402;51.460;7.276;2022-08-20T06:22:32;271.50;;;135.77;;
18544;SDS011;9402;51.460;7.276;2022-08-20T06:24:37;149.57;;;77.60;;
18544;SDS011;9402;51.460;7.276;2022-08-20T06:26:39;191.53;;;108.13;;
18544;SDS011;9402;51.460;7.276;2022-08-20T06:28:41;219.77;;;136.30;;
18544;SDS011;9402;51.460;7.276;2022-08-20T06:30:44;197.07;;;115.00;;
18544;SDS011;9402;51.460;7.276;2022-08-20T06:32:46;261.97;;;140.73;;
18544;SDS011;9402;51.460;7.276;2022-08-20T06:34:50;199.93;;;111.10;;
18544;SDS011;9402;51.460;7.276;2022-08-20T06:36:52;232.47;;;133.43;;
18544;SDS011;9402;51.460;7.276;2022-08-20T06:38:57;268.73;;;150.73;;
18544;SDS011;9402;51.460;7.276;2022-08-20T06:40:59;159.70;;;83.67;;
18544;SDS011;9402;51.460;7.276;2022-08-20T06:43:02;223.63;;;128.47;;
18544;SDS011;9402;51.460;7.276;2022-08-20T06:45:04;158.90;;;101.50;;
18544;SDS011;9402;51.460;7.276;2022-08-20T06:47:07;152.33;;;89.13;;
18544;SDS011;9402;51.460;7.276;2022-08-20T06:49:11;170.83;;;93.70;;
18544;SDS011;9402;51.460;7.276;2022-08-20T06:51:13;202.10;;;110.83;;
18544;SDS011;9402;51.460;7.276;2022-08-20T06:53:16;84.47;;;48.90;;
18544;SDS011;9402;51.460;7.276;2022-08-20T06:55:22;219.93;;;122.20;;
18544;SDS011;9402;51.460;7.276;2022-08-20T06:57:24;129.27;;;66.73;;
18544;SDS011;9402;51.460;7.276;2022-08-20T06:59:27;238.93;;;132.47;;
18544;SDS011;9402;51.460;7.276;2022-08-20T07:01:29;139.97;;;78.90;;
18544;SDS011;9402;51.460;7.276;2022-08-20T07:03:31;147.73;;;84.47;;
18544;SDS011;9402;51.460;7.276;2022-08-20T07:05:35;89.40;;;53.60;;
18544;SDS011;9402;51.460;7.276;2022-08-20T07:07:42;134.10;;;88.10;;
18544;SDS011;9402;51.460;7.276;2022-08-20T07:09:45;123.03;;;82.27;;
18544;SDS011;9402;51.460;7.276;2022-08-20T07:11:50;155.40;;;88.37;;
18544;SDS011;9402;51.460;7.276;2022-08-20T07:13:52;129.67;;;71.23;;
18544;SDS011;9402;51.460;7.276;2022-08-20T07:15:55;191.33;;;117.77;;
18544;SDS011;9402;51.460;7.276;2022-08-20T07:18:00;109.50;;;63.40;;
18544;SDS011;9402;51.460;7.276;2022-08-20T07:20:03;178.43;;;104.47;;
18544;SDS011;9402;51.460;7.276;2022-08-20T07:22:06;176.20;;;102.70;;
18544;SDS011;9402;51.460;7.276;2022-08-20T07:24:09;231.77;;;137.37;;
18544;SDS011;9402;51.460;7.276;2022-08-20T07:26:11;173.70;;;103.23;;
18544;SDS011;9402;51.460;7.276;2022-08-20T07:28:15;180.00;;;110.30;;
18544;SDS011;9402;51.460;7.276;2022-08-20T07:30:20;143.67;;;99.10;;
18544;SDS011;9402;51.460;7.276;2022-08-20T07:32:42;114.97;;;73.90;;
18544;SDS011;9402;51.460;7.276;2022-08-20T07:34:45;108.07;;;66.23;;
18544;SDS011;9402;51.460;7.276;2022-08-20T07:36:47;143.40;;;86.50;;
18544;SDS011;9402;51.460;7.276;2022-08-20T07:38:49;126.87;;;83.73;;
18544;SDS011;9402;51.460;7.276;2022-08-20T07:40:52;128.73;;;78.73;;
18544;SDS011;9402;51.460;7.276;2022-08-20T07:42:56;108.80;;;73.67;;
18544;SDS011;9402;51.460;7.276;2022-08-20T07:45:03;96.10;;;56.97;;
18544;SDS011;9402;51.460;7.276;2022-08-20T07:47:06;74.27;;;48.07;;
18544;SDS011;9402;51.460;7.276;2022-08-20T07:49:08;130.23;;;77.87;;
18544;SDS011;9402;51.460;7.276;2022-08-20T07:51:11;96.03;;;59.83;;
18544;SDS011;9402;51.460;7.276;2022-08-20T07:53:16;61.30;;;40.67;;
18544;SDS011;9402;51.460;7.276;2022-08-20T07:55:19;56.40;;;35.30;;
18544;SDS011;9402;51.460;7.276;2022-08-20T07:57:21;69.67;;;48.67;;
18544;SDS011;9402;51.460;7.276;2022-08-20T07:59:24;108.07;;;78.90;;
18544;SDS011;9402;51.460;7.276;2022-08-20T08:01:28;96.53;;;57.40;;
18544;SDS011;9402;51.460;7.276;2022-08-20T08:03:31;90.50;;;60.20;;
18544;SDS011;9402;51.460;7.276;2022-08-20T08:05:34;174.10;;;110.33;;
18544;SDS011;9402;51.460;7.276;2022-08-20T08:07:38;56.53;;;41.17;;
18544;SDS011;9402;51.460;7.276;2022-08-20T08:09:41;156.70;;;97.20;;
18544;SDS011;9402;51.460;7.276;2022-08-20T08:11:45;117.17;;;74.27;;
18544;SDS011;9402;51.460;7.276;2022-08-20T08:13:49;73.20;;;58.07;;
18544;SDS011;9402;51.460;7.276;2022-08-20T08:15:52;85.20;;;60.10;;
18544;SDS011;9402;51.460;7.276;2022-08-20T08:17:59;86.00;;;57.23;;
18544;SDS011;9402;51.460;7.276;2022-08-20T08:20:07;82.77;;;61.50;;
18544;SDS011;9402;51.460;7.276;2022-08-20T08:22:12;98.27;;;60.27;;
18544;SDS011;9402;51.460;7.276;2022-08-20T08:24:16;44.53;;;30.30;;
18544;SDS011;9402;51.460;7.276;2022-08-20T08:26:18;37.70;;;28.47;;
18544;SDS011;9402;51.460;7.276;2022-08-20T08:28:21;132.83;;;85.20;;
18544;SDS011;9402;51.460;7.276;2022-08-20T08:30:24;30.33;;;18.80;;
18544;SDS011;9402;51.460;7.276;2022-08-20T08:32:27;33.10;;;18.90;;
18544;SDS011;9402;51.460;7.276;2022-08-20T08:34:33;38.50;;;25.33;;
18544;SDS011;9402;51.460;7.276;2022-08-20T08:36:36;81.57;;;54.03;;
18544;SDS011;9402;51.460;7.276;2022-08-20T08:38:39;39.27;;;25.70;;
18544;SDS011;9402;51.460;7.276;2022-08-20T08:40:43;48.67;;;29.10;;
18544;SDS011;9402;51.460;7.276;2022-08-20T08:42:47;52.50;;;37.27;;
18544;SDS011;9402;51.460;7.276;2022-08-20T08:44:54;40.53;;;30.17;;
18544;SDS011;9402;51.460;7.276;2022-08-20T08:46:57;28.00;;;17.83;;
18544;SDS011;9402;51.460;7.276;2022-08-20T08:49:00;31.63;;;20.97;;
18544;SDS011;9402;51.460;7.276;2022-08-20T08:51:05;28.73;;;19.20;;
18544;SDS011;9402;51.460;7.276;2022-08-20T08:53:14;43.13;;;30.63;;
18544;SDS011;9402;51.460;7.276;2022-08-20T08:55:19;65.50;;;45.47;;
18544;SDS011;9402;51.460;7.276;2022-08-20T08:57:22;50.17;;;36.30;;
18544;SDS011;9402;51.460;7.276;2022-08-20T08:59:26;48.20;;;32.10;;
18544;SDS011;9402;51.460;7.276;2022-08-20T09:01:30;38.40;;;24.20;;
18544;SDS011;9402;51.460;7.276;2022-08-20T09:03:35;60.70;;;33.63;;
18544;SDS011;9402;51.460;7.276;2022-08-20T09:05:41;77.53;;;46.10;;
18544;SDS011;9402;51.460;7.276;2022-08-20T09:07:48;75.13;;;46.43;;
18544;SDS011;9402;51.460;7.276;2022-08-20T09:09:53;65.07;;;36.27;;
18544;SDS011;9402;51.460;7.276;2022-08-20T09:12:01;49.37;;;26.27;;
18544;SDS011;9402;51.460;7.276;2022-08-20T09:14:05;47.20;;;25.10;;
18544;SDS011;9402;51.460;7.276;2022-08-20T09:16:07;40.07;;;24.53;;
18544;SDS011;9402;51.460;7.276;2022-08-20T09:18:10;45.37;;;28.37;;
18544;SDS011;9402;51.460;7.276;2022-08-20T09:20:12;42.50;;;26.03;;
18544;SDS011;9402;51.460;7.276;2022-08-20T09:22:16;43.80;;;26.80;;
18544;SDS011;9402;51.460;7.276;2022-08-20T09:24:21;35.97;;;22.90;;
18544;SDS011;9402;51.460;7.276;2022-08-20T09:26:23;41.07;;;24.27;;
18544;SDS011;9402;51.460;7.276;2022-08-20T09:28:26;52.17;;;33.93;;
18544;SDS011;9402;51.460;7.276;2022-08-20T09:30:28;50.57;;;31.57;;
18544;SDS011;9402;51.460;7.276;2022-08-20T09:32:31;59.27;;;33.50;;
18544;SDS011;9402;51.460;7.276;2022-08-20T09:34:34;65.10;;;32.03;;
18544;SDS011;9402;51.460;7.276;2022-08-20T09:36:37;61.57;;;34.10;;
18544;SDS011;9402;51.460;7.276;2022-08-20T09:38:39;60.20;;;35.13;;
18544;SDS011;9402;51.460;7.276;2022-08-20T09:40:43;82.10;;;44.77;;
18544;SDS011;9402;51.460;7.276;2022-08-20T09:42:45;67.73;;;35.17;;
18544;SDS011;9402;51.460;7.276;2022-08-20T09:44:48;50.97;;;31.37;;
18544;SDS011;9402;51.460;7.276;2022-08-20T09:46:50;57.77;;;34.00;;
18544;SDS011;9402;51.460;7.276;2022-08-20T09:48:53;49.53;;;30.10;;
18544;SDS011;9402;51.460;7.276;2022-08-20T09:50:55;51.27;;;29.47;;
18544;SDS011;9402;51.460;7.276;2022-08-20T09:52:58;58.20;;;32.80;;
18544;SDS011;9402;51.460;7.276;2022-08-20T09:55:03;49.90;;;29.27;;
18544;SDS011;9402;51.460;7.276;2022-08-20T09:57:09;51.27;;;28.27;;
18544;SDS011;9402;51.460;7.276;2022-08-20T09:59:11;65.07;;;30.77;;
18544;SDS011;9402;51.460;7.276;2022-08-20T10:01:16;51.90;;;29.90;;
18544;SDS011;9402;51.460;7.276;2022-08-20T10:03:19;47.70;;;26.67;;
18544;SDS011;9402;51.460;7.276;2022-08-20T10:05:21;53.63;;;31.50;;
18544;SDS011;9402;51.460;7.276;2022-08-20T10:07:24;63.23;;;34.17;;
18544;SDS011;9402;51.460;7.276;2022-08-20T10:09:26;60.80;;;35.33;;
18544;SDS011;9402;51.460;7.276;2022-08-20T10:11:28;54.07;;;31.30;;
18544;SDS011;9402;51.460;7.276;2022-08-20T10:13:32;50.03;;;28.00;;
18544;SDS011;9402;51.460;7.276;2022-08-20T10:15:34;50.30;;;31.70;;
18544;SDS011;9402;51.460;7.276;2022-08-20T10:17:37;50.97;;;27.00;;
18544;SDS011;9402;51.460;7.276;2022-08-20T10:19:40;48.50;;;27.60;;
18544;SDS011;9402;51.460;7.276;2022-08-20T10:21:43;60.67;;;28.30;;
18544;SDS011;9402;51.460;7.276;2022-08-20T10:23:45;66.10;;;38.57;;
18544;SDS011;9402;51.460;7.276;2022-08-20T10:25:49;50.97;;;25.93;;
18544;SDS011;9402;51.460;7.276;2022-08-20T10:27:51;49.00;;;26.80;;
18544;SDS011;9402;51.460;7.276;2022-08-20T10:29:55;50.70;;;26.57;;
18544;SDS011;9402;51.460;7.276;2022-08-20T10:32:02;52.43;;;30.13;;
18544;SDS011;9402;51.460;7.276;2022-08-20T10:34:11;49.37;;;27.03;;
18544;SDS011;9402;51.460;7.276;2022-08-20T10:36:14;50.43;;;29.10;;
18544;SDS011;9402;51.460;7.276;2022-08-20T10:38:19;44.50;;;27.60;;
18544;SDS011;9402;51.460;7.276;2022-08-20T10:40:22;55.50;;;30.00;;
18544;SDS011;9402;51.460;7.276;2022-08-20T10:42:24;51.10;;;29.30;;
18544;SDS011;9402;51.460;7.276;2022-08-20T10:44:26;45.63;;;28.10;;
18544;SDS011;9402;51.460;7.276;2022-08-20T10:46:30;44.07;;;25.20;;
18544;SDS011;9402;51.460;7.276;2022-08-20T10:48:33;44.07;;;24.77;;
18544;SDS011;9402;51.460;7.276;2022-08-20T10:50:35;41.57;;;23.60;;
18544;SDS011;9402;51.460;7.276;2022-08-20T10:52:38;46.33;;;22.70;;
18544;SDS011;9402;51.460;7.276;2022-08-20T10:54:40;40.27;;;25.10;;
18544;SDS011;9402;51.460;7.276;2022-08-20T10:56:42;40.10;;;22.47;;
18544;SDS011;9402;51.460;7.276;2022-08-20T10:58:45;37.83;;;22.90;;
18544;SDS011;9402;51.460;7.276;2022-08-20T11:00:47;35.30;;;22.90;;
18544;SDS011;9402;51.460;7.276;2022-08-20T11:02:51;37.47;;;21.10;;
18544;SDS011;9402;51.460;7.276;2022-08-20T11:04:54;38.17;;;21.97;;
18544;SDS011;9402;51.460;7.276;2022-08-20T11:06:56;35.70;;;19.97;;
18544;SDS011;9402;51.460;7.276;2022-08-20T11:08:59;32.13;;;19.33;;
18544;SDS011;9402;51.460;7.276;2022-08-20T11:11:01;32.67;;;18.90;;
18544;SDS011;9402;51.460;7.276;2022-08-20T11:13:05;31.40;;;19.30;;
18544;SDS011;9402;51.460;7.276;2022-08-20T11:15:08;32.63;;;17.87;;
18544;SDS011;9402;51.460;7.276;2022-08-20T11:17:11;26.80;;;17.40;;
18544;SDS011;9402;51.460;7.276;2022-08-20T11:19:15;27.40;;;16.90;;
18544;SDS011;9402;51.460;7.276;2022-08-20T11:21:17;30.33;;;18.17;;
18544;SDS011;9402;51.460;7.276;2022-08-20T11:23:20;26.23;;;16.37;;
18544;SDS011;9402;51.460;7.276;2022-08-20T11:25:22;28.30;;;16.20;;
18544;SDS011;9402;51.460;7.276;2022-08-20T11:27:25;27.47;;;15.90;;
18544;SDS011;9402;51.460;7.276;2022-08-20T11:29:29;21.57;;;15.60;;
18544;SDS011;9402;51.460;7.276;2022-08-20T11:31:31;21.73;;;13.93;;
18544;SDS011;9402;51.460;7.276;2022-08-20T11:33:34;21.63;;;13.97;;
18544;SDS011;9402;51.460;7.276;2022-08-20T11:35:37;21.23;;;12.97;;
18544;SDS011;9402;51.460;7.276;2022-08-20T11:37:40;21.17;;;14.43;;
18544;SDS011;9402;51.460;7.276;2022-08-20T11:39:42;23.87;;;15.00;;
18544;SDS011;9402;51.460;7.276;2022-08-20T11:41:45;20.33;;;14.50;;
18544;SDS011;9402;51.460;7.276;2022-08-20T11:43:47;24.80;;;15.63;;
18544;SDS011;9402;51.460;7.276;2022-08-20T11:45:51;33.10;;;13.07;;
18544;SDS011;9402;51.460;7.276;2022-08-20T11:47:55;18.60;;;12.10;;
18544;SDS011;9402;51.460;7.276;2022-08-20T11:49:58;24.13;;;12.43;;
18544;SDS011;9402;51.460;7.276;2022-08-20T11:52:03;20.67;;;11.70;;
18544;SDS011;9402;51.460;7.276;2022-08-20T11:54:06;22.83;;;13.80;;
18544;SDS011;9402;51.460;7.276;2022-08-20T11:56:08;27.90;;;13.87;;
18544;SDS011;9402;51.460;7.276;2022-08-20T11:58:11;26.20;;;12.70;;
18544;SDS011;9402;51.460;7.276;2022-08-20T12:00:14;26.63;;;14.20;;
18544;SDS011;9402;51.460;7.276;2022-08-20T12:02:19;22.57;;;13.20;;
18544;SDS011;9402;51.460;7.276;2022-08-20T12:04:21;19.23;;;12.13;;